Terminal Aerodrome Forecast
Issued by NWS

Home | Current Version | Previous Version | Text Only | Print | Product List | Glossary On
Versions: 1 2 3 4 5 6 7 8 9 10 11 12 13 14 15 16 17 18 19 20 21 22 23 24
000
FTAK31 PANC 161516 AAC
TAFAGK
TAF AMD
PAGK 161516Z 1615/1712 VRB03KT 4SM -SN BR BKN015 OVC025
      TEMPO 1615/1619 6SM -SHSN BR OVC060
     FM162100 18007KT 1/2SM SN FG SCT003 OVC008
     FM170400 17012G22KT 3SM -SHSN BR SCT008 OVC015
     FM170900 17015G25KT 4SM -SHSN SCT015 OVC025=

USA.gov is the U.S. government's official web portal to all federal, state and local government web resources and services.